createdAt,value
2023-02-05T00:02:35.565Z,0.43
2023-02-05T00:05:18.469Z,0.20
2023-02-05T00:08:05.190Z,0.57
2023-02-05T00:10:37.307Z,0.38
2023-02-05T00:13:16.163Z,0.17
2023-02-05T00:15:51.542Z,0.30
2023-02-05T00:18:25.124Z,0.40
2023-02-05T00:21:00.340Z,0.25
2023-02-05T00:23:36.922Z,0.50
2023-02-05T00:26:19.252Z,0.30
2023-02-05T00:28:56.265Z,0.30
2023-02-05T00:34:25.490Z,0.40
2023-02-05T00:37:04.197Z,0.57
2023-02-05T00:39:43.609Z,0.30
2023-02-05T00:42:30.036Z,0.50
2023-02-05T00:45:18.648Z,0.47
2023-02-05T00:48:00.310Z,0.30
2023-02-05T00:50:40.229Z,0.47
2023-02-05T00:53:11.844Z,0.90
2023-02-05T00:55:48.675Z,0.50
2023-02-05T00:58:30.941Z,0.35
2023-02-05T01:01:21.290Z,0.20
2023-02-05T01:04:28.764Z,0.45
2023-02-05T01:07:19.840Z,0.50
2023-02-05T01:10:03.796Z,0.55
2023-02-05T01:13:04.513Z,0.57
2023-02-05T01:18:55.611Z,0.98
2023-02-05T01:21:59.854Z,0.30
2023-02-05T01:24:42.901Z,0.30
2023-02-05T01:27:26.256Z,0.50
2023-02-05T01:30:05.429Z,0.43
2023-02-05T01:32:44.801Z,0.55
2023-02-05T01:35:13.956Z,0.30
2023-02-05T01:37:41.592Z,1.05
2023-02-05T01:40:13.727Z,0.52
2023-02-05T01:42:41.656Z,0.47
2023-02-05T01:45:29.709Z,0.60
2023-02-05T01:47:59.398Z,0.30
2023-02-05T01:50:32.496Z,0.30
2023-02-05T01:53:04.561Z,0.50
2023-02-05T01:55:34.706Z,0.50
2023-02-05T01:58:02.678Z,0.50
2023-02-05T02:00:30.934Z,0.70
2023-02-05T02:03:00.107Z,0.38
2023-02-05T02:05:27.651Z,0.80
2023-02-05T02:07:55.284Z,0.60
2023-02-05T02:10:23.021Z,0.47
2023-02-05T02:12:51.582Z,0.38
2023-02-05T02:15:22.878Z,0.47
2023-02-05T02:17:53.423Z,0.70
2023-02-05T02:20:33.732Z,0.63
2023-02-05T02:23:22.509Z,0.50
2023-02-05T02:25:59.377Z,0.63
2023-02-05T02:28:36.057Z,0.65
2023-02-05T02:31:11.922Z,0.65
2023-02-05T02:34:03.000Z,0.50
2023-02-05T02:36:35.710Z,0.45
2023-02-05T02:39:15.037Z,0.63
2023-02-05T02:41:52.224Z,0.55
2023-02-05T02:44:35.442Z,0.63
2023-02-05T02:47:22.240Z,0.77
2023-02-05T02:50:14.439Z,0.68
2023-02-05T02:52:46.023Z,0.60
2023-02-05T02:55:15.499Z,1.30
2023-02-05T02:57:49.038Z,0.50
2023-02-05T03:00:21.186Z,0.65
2023-02-05T03:02:52.535Z,0.50
2023-02-05T03:05:22.439Z,0.45
2023-02-05T03:08:02.496Z,0.47
2023-02-05T03:10:42.738Z,0.55
2023-02-05T03:13:11.597Z,0.63
2023-02-05T03:15:44.610Z,0.63
2023-02-05T03:18:14.199Z,0.50
2023-02-05T03:20:47.245Z,0.40
2023-02-05T03:23:16.388Z,0.60
2023-02-05T03:25:44.576Z,0.40
2023-02-05T03:28:13.748Z,0.55
2023-02-05T03:31:08.482Z,0.60
2023-02-05T03:33:58.206Z,0.40
2023-02-05T03:36:52.788Z,0.70
2023-02-05T03:39:55.954Z,0.47
2023-02-05T03:42:44.952Z,0.60
2023-02-05T03:45:21.304Z,0.38
2023-02-05T03:48:08.754Z,0.45
2023-02-05T03:53:24.070Z,0.43
2023-02-05T03:56:03.260Z,0.68
2023-02-05T03:58:42.304Z,0.40
2023-02-05T04:01:12.326Z,0.50
2023-02-05T04:03:42.471Z,0.60
2023-02-05T04:06:12.652Z,0.60
2023-02-05T04:08:41.312Z,0.40
2023-02-05T04:11:10.513Z,1.25
2023-02-05T04:13:40.113Z,0.50
2023-02-05T04:16:11.550Z,0.68
2023-02-05T04:18:39.854Z,0.45
2023-02-05T04:21:07.863Z,0.55
2023-02-05T04:23:38.869Z,0.40
2023-02-05T04:26:07.100Z,0.43
2023-02-05T04:28:41.698Z,0.40
2023-02-05T04:31:12.629Z,0.52
2023-02-05T04:34:09.790Z,0.50
2023-02-05T04:36:39.656Z,0.30
2023-02-05T04:39:08.332Z,0.55
2023-02-05T04:41:36.669Z,0.60
2023-02-05T04:44:06.204Z,0.50
2023-02-05T04:46:34.643Z,0.40
2023-02-05T04:49:02.855Z,0.38
2023-02-05T04:51:31.220Z,0.98
2023-02-05T04:53:59.704Z,0.60
2023-02-05T04:56:27.857Z,0.30
2023-02-05T04:58:55.999Z,0.30
2023-02-05T05:01:24.512Z,0.30
2023-02-05T05:03:52.900Z,0.38
2023-02-05T05:06:21.376Z,0.60
2023-02-05T05:08:49.801Z,0.47
2023-02-05T05:11:19.749Z,0.70
2023-02-05T05:13:49.859Z,0.40
2023-02-05T05:16:18.400Z,0.63
2023-02-05T05:18:47.047Z,0.50
2023-02-05T05:21:17.899Z,0.50
2023-02-05T05:23:45.941Z,0.70
2023-02-05T05:26:14.438Z,0.40
2023-02-05T05:28:42.733Z,0.70
2023-02-05T05:31:16.796Z,0.43
2023-02-05T05:33:45.151Z,1.73
2023-02-05T05:36:14.337Z,0.28
2023-02-05T05:38:43.002Z,0.57
2023-02-05T05:41:41.849Z,0.30
2023-02-05T05:44:10.369Z,0.45
2023-02-05T05:46:37.977Z,0.50
2023-02-05T05:49:05.601Z,0.50
2023-02-05T05:51:33.483Z,0.47
2023-02-05T05:54:01.173Z,1.00
2023-02-05T05:56:29.057Z,0.70
2023-02-05T05:58:56.603Z,0.32
2023-02-05T06:01:24.515Z,0.73
2023-02-05T06:03:52.342Z,0.57
2023-02-05T06:06:20.186Z,0.35
2023-02-05T06:08:47.818Z,1.05
2023-02-05T06:11:15.458Z,0.70
2023-02-05T06:13:43.421Z,0.30
2023-02-05T06:16:11.017Z,0.60
2023-02-05T06:18:38.663Z,0.90
2023-02-05T06:21:06.341Z,0.47
2023-02-05T06:23:34.661Z,0.40
2023-02-05T06:26:02.548Z,0.47
2023-02-05T06:28:30.280Z,0.55
2023-02-05T06:30:58.022Z,0.60
2023-02-05T06:33:25.926Z,1.13
2023-02-05T06:35:54.187Z,0.65
2023-02-05T06:38:21.844Z,1.27
2023-02-05T06:40:49.617Z,0.40
2023-02-05T06:43:17.241Z,0.57
2023-02-05T06:45:45.544Z,0.60
2023-02-05T06:48:13.495Z,0.63
2023-02-05T06:50:41.053Z,0.40
2023-02-05T06:53:10.047Z,0.47
2023-02-05T06:55:39.309Z,1.15
2023-02-05T06:58:07.987Z,0.77
2023-02-05T07:00:36.139Z,0.50
2023-02-05T07:03:04.185Z,0.43
2023-02-05T07:05:38.729Z,0.60
2023-02-05T07:08:06.856Z,0.60
2023-02-05T07:10:35.928Z,0.77
2023-02-05T07:13:06.017Z,0.75
2023-02-05T07:15:37.499Z,0.30
2023-02-05T07:18:05.572Z,0.68
2023-02-05T07:20:33.553Z,0.90
2023-02-05T07:23:01.153Z,0.80
2023-02-05T07:25:29.003Z,0.50
2023-02-05T07:27:56.648Z,0.50
2023-02-05T07:30:24.339Z,1.50
2023-02-05T07:32:51.880Z,0.60
2023-02-05T07:35:19.736Z,0.45
2023-02-05T07:37:50.089Z,1.55
2023-02-05T07:40:17.800Z,0.60
2023-02-05T07:42:45.518Z,0.90
2023-02-05T07:45:13.205Z,1.27
2023-02-05T07:47:40.910Z,1.60
2023-02-05T07:50:09.079Z,1.40
2023-02-05T07:52:36.618Z,0.80
2023-02-05T07:55:04.370Z,0.57
2023-02-05T07:57:32.662Z,0.70
2023-02-05T08:00:00.987Z,1.35
2023-02-05T08:02:28.663Z,1.58
2023-02-05T08:04:56.308Z,2.08
2023-02-05T08:07:31.637Z,0.70
2023-02-05T08:09:59.696Z,0.40
2023-02-05T08:12:28.613Z,0.65
2023-02-05T08:14:59.113Z,0.45
2023-02-05T08:17:26.705Z,0.63
2023-02-05T08:20:07.222Z,0.70
2023-02-05T08:22:37.386Z,0.57
2023-02-05T08:25:10.202Z,0.30
2023-02-05T08:27:39.157Z,1.40
2023-02-05T08:30:11.229Z,0.40
2023-02-05T08:32:41.260Z,0.80
2023-02-05T08:35:09.033Z,1.20
2023-02-05T08:37:37.398Z,3.28
2023-02-05T08:40:05.810Z,1.67
2023-02-05T08:42:33.444Z,0.93
2023-02-05T08:45:01.167Z,0.77
2023-02-05T08:47:29.168Z,1.13
2023-02-05T08:49:56.873Z,0.47
2023-02-05T08:52:24.658Z,0.70
2023-02-05T08:54:52.644Z,0.35
2023-02-05T08:57:20.378Z,0.90
2023-02-05T08:59:48.504Z,0.40
2023-02-05T09:02:16.731Z,0.40
2023-02-05T09:04:44.365Z,0.55
2023-02-05T09:07:12.117Z,0.93
2023-02-05T09:09:39.790Z,0.40
2023-02-05T09:12:07.931Z,0.77
2023-02-05T09:14:40.616Z,1.05
2023-02-05T09:17:10.384Z,0.38
2023-02-05T09:19:40.123Z,0.40
2023-02-05T09:22:11.108Z,0.40
2023-02-05T09:24:46.584Z,0.47
2023-02-05T09:27:15.077Z,0.57
2023-02-05T09:29:50.120Z,0.57
2023-02-05T09:32:17.636Z,0.63
2023-02-05T09:34:45.182Z,0.40
2023-02-05T09:37:12.826Z,0.40
2023-02-05T09:42:48.236Z,0.65
2023-02-05T09:45:38.954Z,0.52
2023-02-05T09:48:46.770Z,0.30
2023-02-05T09:51:15.964Z,0.65
2023-02-05T09:53:49.074Z,0.52
2023-02-05T09:56:18.412Z,0.50
2023-02-05T09:58:53.298Z,0.50
2023-02-05T10:01:46.864Z,0.35
2023-02-05T10:04:15.624Z,0.88
2023-02-05T10:07:23.639Z,0.35
2023-02-05T10:10:29.012Z,0.57
2023-02-05T10:13:29.680Z,0.20
2023-02-05T10:16:23.382Z,0.28
2023-02-05T10:19:20.101Z,0.60
2023-02-05T10:22:25.463Z,0.30
2023-02-05T10:25:23.732Z,0.40
2023-02-05T10:28:11.866Z,0.50
2023-02-05T10:30:56.897Z,0.60
2023-02-05T10:34:18.036Z,0.40
2023-02-05T10:36:54.738Z,0.40
2023-02-05T10:39:31.040Z,0.47
2023-02-05T10:42:17.156Z,0.55
2023-02-05T10:44:49.317Z,0.57
2023-02-05T10:47:34.529Z,0.52
2023-02-05T10:50:19.932Z,0.32
2023-02-05T10:52:48.174Z,0.57
2023-02-05T10:55:16.503Z,0.68
2023-02-05T10:57:44.796Z,1.05
2023-02-05T11:00:23.904Z,0.70
2023-02-05T11:02:59.232Z,0.60
2023-02-05T11:05:38.518Z,0.50
2023-02-05T11:08:35.612Z,0.45
2023-02-05T11:11:05.401Z,0.47
2023-02-05T11:13:38.514Z,0.20
2023-02-05T11:16:09.306Z,0.93
2023-02-05T11:18:40.783Z,0.82
2023-02-05T11:21:09.856Z,0.55
2023-02-05T11:23:40.151Z,0.35
2023-02-05T11:26:24.392Z,0.47
2023-02-05T11:28:53.259Z,0.40
2023-02-05T11:31:38.077Z,0.63
2023-02-05T11:34:08.960Z,0.30
2023-02-05T11:36:42.962Z,0.77
2023-02-05T11:39:36.905Z,0.50
2023-02-05T11:42:23.345Z,0.60
2023-02-05T11:44:59.321Z,0.50
2023-02-05T11:51:37.843Z,0.30
2023-02-05T11:54:31.463Z,0.65
2023-02-05T11:57:39.416Z,0.65
2023-02-05T12:00:18.313Z,0.55
2023-02-05T12:03:03.116Z,0.40
2023-02-05T12:05:40.872Z,0.77
2023-02-05T12:09:03.957Z,0.75
2023-02-05T12:13:27.159Z,0.80
2023-02-05T12:15:59.035Z,0.60
2023-02-05T12:19:02.646Z,0.75
2023-02-05T12:21:57.609Z,0.57
2023-02-05T12:24:56.165Z,0.50
2023-02-05T12:27:55.482Z,0.90
2023-02-05T12:37:01.267Z,0.30
2023-02-05T12:39:58.979Z,1.67
2023-02-05T12:43:14.831Z,0.60
2023-02-05T12:46:06.326Z,0.45
2023-02-05T12:48:52.078Z,0.70
2023-02-05T12:51:29.356Z,1.00
2023-02-05T12:54:03.648Z,0.88
2023-02-05T12:56:45.221Z,0.60
2023-02-05T12:59:35.450Z,0.55
2023-02-05T13:02:38.600Z,0.45
2023-02-05T13:05:27.013Z,0.40
2023-02-05T13:08:06.568Z,0.57
2023-02-05T13:10:58.334Z,0.30
2023-02-05T13:13:35.712Z,0.68
2023-02-05T13:16:09.742Z,0.60
2023-02-05T13:19:04.818Z,0.47
2023-02-05T13:22:00.148Z,0.73
2023-02-05T13:25:17.911Z,0.50
2023-02-05T13:28:13.188Z,0.40
2023-02-05T13:30:48.471Z,0.82
2023-02-05T13:33:16.851Z,0.63
2023-02-05T13:36:15.974Z,0.35
2023-02-05T13:39:26.472Z,1.02
2023-02-05T13:42:41.265Z,0.88
2023-02-05T13:45:56.645Z,0.65
2023-02-05T13:49:15.888Z,0.65
2023-02-05T13:52:52.690Z,0.52
2023-02-05T13:56:10.802Z,0.30
2023-02-05T13:59:00.893Z,0.75
2023-02-05T14:01:40.894Z,0.70
2023-02-05T14:04:40.596Z,0.40
2023-02-05T14:07:18.192Z,0.50
2023-02-05T14:10:18.050Z,0.70
2023-02-05T14:12:46.959Z,0.60
2023-02-05T14:15:33.602Z,0.50
2023-02-05T14:18:15.766Z,0.50
2023-02-05T14:20:45.760Z,0.30
2023-02-05T14:24:17.053Z,0.40
2023-02-05T14:26:56.247Z,0.30
2023-02-05T14:29:43.757Z,0.63
2023-02-05T14:32:33.279Z,0.45
2023-02-05T14:35:20.970Z,0.60
2023-02-05T14:38:03.058Z,0.73
2023-02-05T14:40:37.658Z,0.30
2023-02-05T14:43:16.412Z,0.35
2023-02-05T14:46:21.053Z,1.02
2023-02-05T14:49:03.888Z,0.70
2023-02-05T14:51:44.884Z,0.13
2023-02-05T14:54:41.971Z,1.02
2023-02-05T14:57:15.404Z,0.70
2023-02-05T15:00:16.815Z,0.50
2023-02-05T15:02:59.904Z,0.40
2023-02-05T15:06:00.746Z,0.70
2023-02-05T15:08:28.452Z,1.50
2023-02-05T15:11:23.166Z,0.60
2023-02-05T15:14:24.408Z,0.38
2023-02-05T15:17:32.278Z,0.60
2023-02-05T15:20:42.840Z,0.30
2023-02-05T15:23:23.355Z,1.05
2023-02-05T15:26:02.896Z,0.65
2023-02-05T15:28:36.204Z,0.63
2023-02-05T15:31:24.432Z,0.70
2023-02-05T15:34:29.812Z,0.50
2023-02-05T15:37:17.974Z,0.50
2023-02-05T15:39:54.865Z,0.82
2023-02-05T15:42:35.174Z,0.60
2023-02-05T15:45:34.424Z,0.50
2023-02-05T15:48:06.790Z,1.00
2023-02-05T15:50:47.367Z,1.10
2023-02-05T15:53:35.534Z,0.82
2023-02-05T15:56:27.292Z,0.88
2023-02-05T15:59:03.329Z,0.68
2023-02-05T16:03:59.760Z,0.65
2023-02-05T16:06:30.111Z,0.82
2023-02-05T16:08:59.555Z,1.10
2023-02-05T16:11:35.801Z,0.98
2023-02-05T16:14:07.805Z,1.95
2023-02-05T16:16:38.869Z,2.63
2023-02-05T16:19:12.818Z,1.40
2023-02-05T16:22:03.031Z,1.30
2023-02-05T16:24:40.223Z,1.45
2023-02-05T16:27:35.481Z,0.88
2023-02-05T16:30:34.989Z,1.33
2023-02-05T16:33:31.216Z,1.17
2023-02-05T16:36:26.815Z,1.30
2023-02-05T16:38:57.327Z,1.05
2023-02-05T16:41:31.985Z,0.20
2023-02-05T16:46:42.740Z,0.73
2023-02-05T16:49:48.526Z,0.60
2023-02-05T16:52:55.217Z,0.47
2023-02-05T16:55:30.811Z,0.88
2023-02-05T16:58:21.821Z,0.60
2023-02-05T17:00:59.726Z,0.70
2023-02-05T17:03:35.310Z,0.90
2023-02-05T17:06:15.873Z,0.60
2023-02-05T17:08:52.287Z,0.93
2023-02-05T17:11:38.727Z,1.08
2023-02-05T17:14:42.091Z,0.75
2023-02-05T17:17:19.113Z,0.73
2023-02-05T17:20:16.402Z,0.95
2023-02-05T17:23:03.170Z,0.80
2023-02-05T17:25:56.345Z,0.60
2023-02-05T17:28:27.860Z,0.55
2023-02-05T17:31:02.182Z,1.55
2023-02-05T17:33:42.503Z,1.13
2023-02-05T17:36:25.760Z,0.70
2023-02-05T17:39:05.329Z,3.83
2023-02-05T17:41:59.600Z,1.75
2023-02-05T17:44:35.516Z,0.93
2023-02-05T17:47:15.725Z,1.08
2023-02-05T17:49:47.052Z,0.73
2023-02-05T17:52:23.851Z,0.88
2023-02-05T17:54:55.784Z,0.95
2023-02-05T17:57:24.157Z,1.63
2023-02-05T17:59:56.954Z,1.10
2023-02-05T18:02:28.307Z,1.52
2023-02-05T18:05:05.595Z,0.77
2023-02-05T18:07:37.518Z,1.30
2023-02-05T18:10:23.350Z,1.15
2023-02-05T18:12:58.324Z,0.88
2023-02-05T18:15:31.941Z,1.77
2023-02-05T18:18:00.471Z,1.95
2023-02-05T18:23:31.357Z,2.35
2023-02-05T18:26:44.588Z,1.20
2023-02-05T18:29:30.897Z,0.65
2023-02-05T18:31:59.002Z,1.52
2023-02-05T18:34:31.379Z,2.58
2023-02-05T18:37:39.919Z,2.50
2023-02-05T18:43:24.319Z,3.75
2023-02-05T18:46:02.468Z,2.65
2023-02-05T18:52:18.862Z,1.85
2023-02-05T18:54:48.414Z,2.22
2023-02-05T18:57:32.174Z,1.92
2023-02-05T19:00:25.090Z,2.60
2023-02-05T19:02:56.624Z,3.55
2023-02-05T19:05:25.110Z,2.13
2023-02-05T19:08:50.605Z,2.03
2023-02-05T19:11:24.845Z,3.03
2023-02-05T19:14:12.003Z,1.38
2023-02-05T19:16:47.896Z,1.88
2023-02-05T19:19:42.594Z,1.70
2023-02-05T19:22:29.111Z,2.08
2023-02-05T19:28:56.895Z,1.33
2023-02-05T19:32:10.641Z,1.52
2023-02-05T19:34:43.472Z,3.28
2023-02-05T19:37:12.489Z,2.25
2023-02-05T19:39:40.650Z,2.60
2023-02-05T19:42:08.886Z,1.63
2023-02-05T19:44:39.504Z,2.22
2023-02-05T19:47:09.015Z,1.73
2023-02-05T19:49:37.130Z,2.58
2023-02-05T19:52:07.116Z,1.90
2023-02-05T19:54:36.281Z,1.80
2023-02-05T19:57:04.666Z,2.45
2023-02-05T19:59:32.985Z,2.15
2023-02-05T20:02:02.325Z,2.15
2023-02-05T20:04:30.600Z,2.05
2023-02-05T20:07:02.173Z,3.45
2023-02-05T20:09:32.242Z,3.25
2023-02-05T20:12:01.313Z,3.55
2023-02-05T20:15:02.971Z,2.92
2023-02-05T20:18:07.357Z,2.58
2023-02-05T20:24:07.540Z,3.35
2023-02-05T20:26:52.204Z,3.58
2023-02-05T20:30:21.550Z,3.38
2023-02-05T20:33:00.284Z,2.17
2023-02-05T20:35:43.007Z,2.42
2023-02-05T20:38:16.329Z,1.30
2023-02-05T20:40:47.211Z,1.48
2023-02-05T20:43:29.212Z,1.73
2023-02-05T20:46:25.525Z,1.20
2023-02-05T20:49:15.053Z,1.02
2023-02-05T20:51:59.797Z,1.25
2023-02-05T20:54:43.129Z,1.73
2023-02-05T21:08:17.476Z,2.58
2023-02-05T21:10:52.568Z,1.48
2023-02-05T21:13:24.306Z,0.70
2023-02-05T21:16:46.139Z,0.55
2023-02-05T21:19:31.429Z,1.45
2023-02-05T21:22:00.685Z,1.48
2023-02-05T21:24:28.749Z,1.48
2023-02-05T21:26:59.069Z,1.25
2023-02-05T21:29:27.380Z,1.67
2023-02-05T21:32:01.300Z,1.17
2023-02-05T21:34:33.386Z,2.63
2023-02-05T21:37:03.656Z,4.20
2023-02-05T21:39:31.457Z,4.05
2023-02-05T21:41:59.118Z,1.98
2023-02-05T21:44:26.818Z,2.67
2023-02-05T21:46:55.382Z,3.38
2023-02-05T21:49:23.119Z,1.55
2023-02-05T21:51:53.354Z,1.83
2023-02-05T21:54:25.323Z,1.70
2023-02-05T21:56:53.850Z,1.65
2023-02-05T21:59:21.614Z,1.33
2023-02-05T22:01:49.411Z,1.38
2023-02-05T22:04:17.650Z,1.33
2023-02-05T22:06:45.544Z,2.72
2023-02-05T22:09:15.344Z,1.13
2023-02-05T22:11:44.093Z,1.20
2023-02-05T22:14:12.165Z,1.67
2023-02-05T22:16:40.094Z,2.33
2023-02-05T22:19:08.498Z,1.48
2023-02-05T22:21:39.884Z,1.30
2023-02-05T22:24:10.756Z,1.45
2023-02-05T22:26:39.385Z,0.95
2023-02-05T22:29:09.095Z,1.60
2023-02-05T22:31:36.967Z,3.33
2023-02-05T22:34:05.517Z,1.35
2023-02-05T22:36:37.981Z,1.60
2023-02-05T22:39:07.285Z,0.88
2023-02-05T22:41:37.994Z,1.50
2023-02-05T22:44:07.281Z,0.77
2023-02-05T22:46:39.041Z,1.30
2023-02-05T22:49:07.201Z,1.58
2023-02-05T22:51:38.585Z,1.05
2023-02-05T22:54:08.590Z,3.28
2023-02-05T22:56:37.615Z,3.55
2023-02-05T22:59:05.898Z,3.53
2023-02-05T23:01:38.134Z,2.13
2023-02-05T23:04:07.510Z,1.70
2023-02-05T23:06:38.699Z,1.30
2023-02-05T23:09:17.960Z,1.20
2023-02-05T23:11:46.145Z,1.23
2023-02-05T23:14:16.139Z,1.50
2023-02-05T23:16:46.186Z,0.63
2023-02-05T23:19:19.939Z,1.23
2023-02-05T23:21:48.517Z,1.42
2023-02-05T23:24:18.245Z,1.40
2023-02-05T23:26:48.258Z,1.25
2023-02-05T23:29:17.307Z,1.58
2023-02-05T23:31:45.256Z,0.80
2023-02-05T23:34:13.128Z,1.20
2023-02-05T23:36:41.245Z,1.33
2023-02-05T23:39:09.146Z,1.90
2023-02-05T23:41:37.190Z,1.60
2023-02-05T23:44:19.826Z,1.02
2023-02-05T23:46:48.941Z,1.42
2023-02-05T23:49:18.028Z,1.35
2023-02-05T23:51:45.642Z,1.10
2023-02-05T23:54:13.546Z,1.75
2023-02-05T23:56:41.847Z,0.80
2023-02-05T23:59:11.115Z,1.02
